Horatio, South Carolina
Current Conditions -  °F | °C
As of 11:20 AM on Monday 24 Nov 2014 (Local Time) from KSSC Reporting Station
Overcast Overcast  
Wind Chill: 70°   Ceiling: 900
Heat Index: 70°   Visibility: 10mi
Dew Point: 68°   Wind: 9mph
Humidity: 94%   Direction: 190°S
Pressure: 29.84"   Gusts: NA
Location:  34.02°N, 80.57°W
Report Text: KSSC 241620Z AUTO 19008KT 10SM OVC009 21/20 A2984 RMK AO2 DZB1614 $
Loading
Personal Weather Stations






























Interactive Weather Map New forecast layout! Learn more

10-Day Weather Forecast

Advertisements
Track Severe Weather on mobile